HESH/SSH METAR and TAF weather

Enter ICAO airport designator
Station Type Date Time Source
HESH METAR 2020/02/16 19:00 UTC NOAA

HESH 161900Z 33005KT CAVOK 21/12 Q1013 NOSIG


Station Type Date Time Source
HESH Decoded METAR 2020/02/16 19:00 UTC NOAA

Sharm El Sheikhintl, Egypt (HESH) 27-58N 034-23E
Feb 16, 2020 - 02:00 PM EST / 2020.02.16 1900 UTC
Wind: from the NNW (330 degrees) at 6 MPH (5 KT):0
Visibility: greater than 7 mile(s):0
Temperature: 69 F (21 C)
Dew Point: 53 F (12 C)
Relative Humidity: 56%
Pressure (altimeter): 29.91 in. Hg (1013 hPa)
ob: HESH 161900Z 33005KT CAVOK 21/12 Q1013 NOSIG
cycle: 19

Station Type Date Time Source
HESH TAF 2020/02/16 18:03 UTC NOAA

TAF HESH 161700Z 1618/1724 34010KT CAVOK

Example: see airport list